sensor_id;sensor_type;location;lat;lon;timestamp;P1;durP1;ratioP1;P2;durP2;ratioP2
64313;SDS011;50650;48.180;11.524;2023-01-09T00:01:12;4.93;;;2.90;;
64313;SDS011;50650;48.180;11.524;2023-01-09T00:03:39;5.75;;;3.50;;
64313;SDS011;50650;48.180;11.524;2023-01-09T00:06:06;12.20;;;4.78;;
64313;SDS011;50650;48.180;11.524;2023-01-09T00:08:34;7.13;;;4.30;;
64313;SDS011;50650;48.180;11.524;2023-01-09T00:11:00;10.95;;;4.80;;
64313;SDS011;50650;48.180;11.524;2023-01-09T00:13:26;9.07;;;4.85;;
64313;SDS011;50650;48.180;11.524;2023-01-09T00:15:53;7.18;;;4.47;;
64313;SDS011;50650;48.180;11.524;2023-01-09T00:18:19;10.27;;;5.07;;
64313;SDS011;50650;48.180;11.524;2023-01-09T00:20:46;10.07;;;4.78;;
64313;SDS011;50650;48.180;11.524;2023-01-09T00:23:12;9.85;;;4.80;;
64313;SDS011;50650;48.180;11.524;2023-01-09T00:25:42;9.43;;;5.18;;
64313;SDS011;50650;48.180;11.524;2023-01-09T00:28:09;8.32;;;4.65;;
64313;SDS011;50650;48.180;11.524;2023-01-09T00:30:35;8.48;;;4.57;;
64313;SDS011;50650;48.180;11.524;2023-01-09T00:33:05;9.90;;;4.93;;
64313;SDS011;50650;48.180;11.524;2023-01-09T00:35:31;9.68;;;5.15;;
64313;SDS011;50650;48.180;11.524;2023-01-09T00:37:57;9.05;;;5.07;;
64313;SDS011;50650;48.180;11.524;2023-01-09T00:40:25;8.45;;;5.00;;
64313;SDS011;50650;48.180;11.524;2023-01-09T00:42:55;8.60;;;4.85;;
64313;SDS011;50650;48.180;11.524;2023-01-09T00:45:22;8.45;;;4.93;;
64313;SDS011;50650;48.180;11.524;2023-01-09T00:47:52;8.85;;;5.07;;
64313;SDS011;50650;48.180;11.524;2023-01-09T00:50:20;7.30;;;4.82;;
64313;SDS011;50650;48.180;11.524;2023-01-09T00:52:49;9.32;;;5.50;;
64313;SDS011;50650;48.180;11.524;2023-01-09T00:55:22;7.20;;;4.60;;
64313;SDS011;50650;48.180;11.524;2023-01-09T00:57:49;8.40;;;4.95;;
64313;SDS011;50650;48.180;11.524;2023-01-09T01:02:45;8.13;;;5.22;;
64313;SDS011;50650;48.180;11.524;2023-01-09T01:05:11;9.55;;;5.13;;
64313;SDS011;50650;48.180;11.524;2023-01-09T01:07:55;9.57;;;5.25;;
64313;SDS011;50650;48.180;11.524;2023-01-09T01:10:23;10.07;;;5.80;;
64313;SDS011;50650;48.180;11.524;2023-01-09T01:12:53;8.88;;;5.15;;
64313;SDS011;50650;48.180;11.524;2023-01-09T01:15:32;9.50;;;5.05;;
64313;SDS011;50650;48.180;11.524;2023-01-09T01:17:58;9.18;;;5.03;;
64313;SDS011;50650;48.180;11.524;2023-01-09T01:20:25;8.60;;;5.03;;
64313;SDS011;50650;48.180;11.524;2023-01-09T01:22:52;7.28;;;4.65;;
64313;SDS011;50650;48.180;11.524;2023-01-09T01:25:18;8.52;;;4.97;;
64313;SDS011;50650;48.180;11.524;2023-01-09T01:27:45;7.55;;;4.50;;
64313;SDS011;50650;48.180;11.524;2023-01-09T01:30:12;9.95;;;4.82;;
64313;SDS011;50650;48.180;11.524;2023-01-09T01:32:47;9.57;;;4.95;;
64313;SDS011;50650;48.180;11.524;2023-01-09T01:37:40;9.95;;;4.90;;
64313;SDS011;50650;48.180;11.524;2023-01-09T01:40:08;9.30;;;4.68;;
64313;SDS011;50650;48.180;11.524;2023-01-09T01:42:45;7.57;;;4.38;;
64313;SDS011;50650;48.180;11.524;2023-01-09T01:45:12;8.73;;;5.07;;
64313;SDS011;50650;48.180;11.524;2023-01-09T01:47:41;6.07;;;3.92;;
64313;SDS011;50650;48.180;11.524;2023-01-09T01:50:16;8.63;;;4.43;;
64313;SDS011;50650;48.180;11.524;2023-01-09T01:52:51;7.97;;;4.25;;
64313;SDS011;50650;48.180;11.524;2023-01-09T01:55:20;8.73;;;4.75;;
64313;SDS011;50650;48.180;11.524;2023-01-09T01:57:47;8.48;;;4.47;;
64313;SDS011;50650;48.180;11.524;2023-01-09T02:00:16;7.10;;;4.43;;
64313;SDS011;50650;48.180;11.524;2023-01-09T02:02:43;8.25;;;4.57;;
64313;SDS011;50650;48.180;11.524;2023-01-09T02:05:10;9.35;;;3.80;;
64313;SDS011;50650;48.180;11.524;2023-01-09T02:07:41;8.00;;;4.32;;
64313;SDS011;50650;48.180;11.524;2023-01-09T02:10:08;7.53;;;4.32;;
64313;SDS011;50650;48.180;11.524;2023-01-09T02:12:35;6.80;;;4.00;;
64313;SDS011;50650;48.180;11.524;2023-01-09T02:15:02;6.43;;;3.85;;
64313;SDS011;50650;48.180;11.524;2023-01-09T02:17:46;8.82;;;4.45;;
64313;SDS011;50650;48.180;11.524;2023-01-09T02:29:07;6.40;;;3.90;;
64313;SDS011;50650;48.180;11.524;2023-01-09T02:32:03;4.97;;;3.45;;
64313;SDS011;50650;48.180;11.524;2023-01-09T02:34:35;7.55;;;3.72;;
64313;SDS011;50650;48.180;11.524;2023-01-09T02:37:03;5.97;;;3.55;;
64313;SDS011;50650;48.180;11.524;2023-01-09T02:39:34;6.90;;;3.60;;
64313;SDS011;50650;48.180;11.524;2023-01-09T02:42:12;7.90;;;3.53;;
64313;SDS011;50650;48.180;11.524;2023-01-09T02:44:41;6.03;;;3.60;;
64313;SDS011;50650;48.180;11.524;2023-01-09T02:50:11;8.35;;;3.67;;
64313;SDS011;50650;48.180;11.524;2023-01-09T02:52:45;6.93;;;3.95;;
64313;SDS011;50650;48.180;11.524;2023-01-09T02:55:18;6.03;;;3.38;;
64313;SDS011;50650;48.180;11.524;2023-01-09T03:00:21;4.20;;;2.92;;
64313;SDS011;50650;48.180;11.524;2023-01-09T03:02:57;5.88;;;2.95;;
64313;SDS011;50650;48.180;11.524;2023-01-09T03:05:32;6.60;;;3.38;;
64313;SDS011;50650;48.180;11.524;2023-01-09T03:08:05;5.27;;;3.33;;
64313;SDS011;50650;48.180;11.524;2023-01-09T03:10:35;6.93;;;3.50;;
64313;SDS011;50650;48.180;11.524;2023-01-09T03:13:03;5.93;;;3.35;;
64313;SDS011;50650;48.180;11.524;2023-01-09T03:15:31;4.45;;;2.88;;
64313;SDS011;50650;48.180;11.524;2023-01-09T03:18:01;4.60;;;3.03;;
64313;SDS011;50650;48.180;11.524;2023-01-09T03:20:29;6.00;;;3.15;;
64313;SDS011;50650;48.180;11.524;2023-01-09T03:23:00;4.72;;;2.97;;
64313;SDS011;50650;48.180;11.524;2023-01-09T03:25:29;4.97;;;2.88;;
64313;SDS011;50650;48.180;11.524;2023-01-09T03:27:56;3.47;;;2.60;;
64313;SDS011;50650;48.180;11.524;2023-01-09T03:30:24;6.50;;;2.72;;
64313;SDS011;50650;48.180;11.524;2023-01-09T03:32:51;5.18;;;2.78;;
64313;SDS011;50650;48.180;11.524;2023-01-09T03:35:22;5.90;;;2.70;;
64313;SDS011;50650;48.180;11.524;2023-01-09T03:37:48;5.43;;;2.38;;
64313;SDS011;50650;48.180;11.524;2023-01-09T03:40:15;5.38;;;2.70;;
64313;SDS011;50650;48.180;11.524;2023-01-09T03:42:42;3.42;;;2.10;;
64313;SDS011;50650;48.180;11.524;2023-01-09T03:45:09;4.82;;;2.20;;
64313;SDS011;50650;48.180;11.524;2023-01-09T03:47:35;5.97;;;2.25;;
64313;SDS011;50650;48.180;11.524;2023-01-09T03:50:02;5.22;;;2.22;;
64313;SDS011;50650;48.180;11.524;2023-01-09T03:52:30;4.35;;;2.13;;
64313;SDS011;50650;48.180;11.524;2023-01-09T03:54:58;4.97;;;2.28;;
64313;SDS011;50650;48.180;11.524;2023-01-09T03:57:24;4.15;;;2.20;;
64313;SDS011;50650;48.180;11.524;2023-01-09T03:59:50;4.07;;;2.00;;
64313;SDS011;50650;48.180;11.524;2023-01-09T04:02:19;3.63;;;2.00;;
64313;SDS011;50650;48.180;11.524;2023-01-09T04:04:46;3.70;;;1.77;;
64313;SDS011;50650;48.180;11.524;2023-01-09T04:07:12;2.92;;;2.00;;
64313;SDS011;50650;48.180;11.524;2023-01-09T04:09:40;3.33;;;1.50;;
64313;SDS011;50650;48.180;11.524;2023-01-09T04:12:06;3.53;;;1.75;;
64313;SDS011;50650;48.180;11.524;2023-01-09T04:14:33;2.67;;;1.80;;
64313;SDS011;50650;48.180;11.524;2023-01-09T04:16:59;3.22;;;1.90;;
64313;SDS011;50650;48.180;11.524;2023-01-09T04:19:28;2.95;;;1.83;;
64313;SDS011;50650;48.180;11.524;2023-01-09T04:21:55;3.38;;;1.60;;
64313;SDS011;50650;48.180;11.524;2023-01-09T04:24:21;2.83;;;1.63;;
64313;SDS011;50650;48.180;11.524;2023-01-09T04:26:51;2.83;;;1.60;;
64313;SDS011;50650;48.180;11.524;2023-01-09T04:29:24;2.67;;;1.42;;
64313;SDS011;50650;48.180;11.524;2023-01-09T04:31:50;2.53;;;1.45;;
64313;SDS011;50650;48.180;11.524;2023-01-09T04:34:17;3.28;;;1.40;;
64313;SDS011;50650;48.180;11.524;2023-01-09T04:36:46;3.05;;;1.40;;
64313;SDS011;50650;48.180;11.524;2023-01-09T04:39:13;2.28;;;1.25;;
64313;SDS011;50650;48.180;11.524;2023-01-09T04:41:45;4.20;;;1.30;;
64313;SDS011;50650;48.180;11.524;2023-01-09T04:44:16;2.55;;;1.13;;
64313;SDS011;50650;48.180;11.524;2023-01-09T04:46:43;1.48;;;0.80;;
64313;SDS011;50650;48.180;11.524;2023-01-09T04:49:10;2.13;;;0.80;;
64313;SDS011;50650;48.180;11.524;2023-01-09T04:51:36;0.95;;;0.52;;
64313;SDS011;50650;48.180;11.524;2023-01-09T04:54:03;0.90;;;0.50;;
64313;SDS011;50650;48.180;11.524;2023-01-09T04:56:38;0.70;;;0.50;;
64313;SDS011;50650;48.180;11.524;2023-01-09T04:59:05;2.10;;;0.60;;
64313;SDS011;50650;48.180;11.524;2023-01-09T05:01:34;0.95;;;0.40;;
64313;SDS011;50650;48.180;11.524;2023-01-09T05:04:00;0.93;;;0.35;;
64313;SDS011;50650;48.180;11.524;2023-01-09T05:06:27;0.60;;;0.50;;
64313;SDS011;50650;48.180;11.524;2023-01-09T05:08:56;0.45;;;0.20;;
64313;SDS011;50650;48.180;11.524;2023-01-09T05:11:23;0.55;;;0.35;;
64313;SDS011;50650;48.180;11.524;2023-01-09T05:13:49;1.55;;;0.22;;
64313;SDS011;50650;48.180;11.524;2023-01-09T05:16:22;0.65;;;0.20;;
64313;SDS011;50650;48.180;11.524;2023-01-09T05:18:49;1.15;;;0.20;;
64313;SDS011;50650;48.180;11.524;2023-01-09T05:21:20;0.17;;;0.10;;
64313;SDS011;50650;48.180;11.524;2023-01-09T05:23:47;0.17;;;0.17;;
64313;SDS011;50650;48.180;11.524;2023-01-09T05:26:25;0.45;;;0.20;;
64313;SDS011;50650;48.180;11.524;2023-01-09T05:28:54;1.33;;;0.60;;
64313;SDS011;50650;48.180;11.524;2023-01-09T05:31:21;0.98;;;0.20;;
64313;SDS011;50650;48.180;11.524;2023-01-09T05:33:57;0.20;;;0.20;;
64313;SDS011;50650;48.180;11.524;2023-01-09T05:36:30;0.35;;;0.20;;
64313;SDS011;50650;48.180;11.524;2023-01-09T05:38:57;0.10;;;0.10;;
64313;SDS011;50650;48.180;11.524;2023-01-09T05:41:23;1.48;;;0.30;;
64313;SDS011;50650;48.180;11.524;2023-01-09T05:43:50;0.30;;;0.10;;
64313;SDS011;50650;48.180;11.524;2023-01-09T05:46:16;0.30;;;0.20;;
64313;SDS011;50650;48.180;11.524;2023-01-09T05:48:45;0.28;;;0.20;;
64313;SDS011;50650;48.180;11.524;2023-01-09T05:51:13;0.45;;;0.20;;
64313;SDS011;50650;48.180;11.524;2023-01-09T05:53:39;0.98;;;0.40;;
64313;SDS011;50650;48.180;11.524;2023-01-09T05:56:06;0.60;;;0.40;;
64313;SDS011;50650;48.180;11.524;2023-01-09T05:58:32;0.52;;;0.30;;
64313;SDS011;50650;48.180;11.524;2023-01-09T06:00:59;0.70;;;0.20;;
64313;SDS011;50650;48.180;11.524;2023-01-09T06:03:25;0.30;;;0.10;;
64313;SDS011;50650;48.180;11.524;2023-01-09T06:05:51;0.30;;;0.10;;
64313;SDS011;50650;48.180;11.524;2023-01-09T06:08:19;0.57;;;0.30;;
64313;SDS011;50650;48.180;11.524;2023-01-09T06:10:49;2.38;;;0.43;;
64313;SDS011;50650;48.180;11.524;2023-01-09T06:13:15;1.67;;;0.80;;
64313;SDS011;50650;48.180;11.524;2023-01-09T06:15:42;0.30;;;0.20;;
64313;SDS011;50650;48.180;11.524;2023-01-09T06:18:08;0.20;;;0.10;;
64313;SDS011;50650;48.180;11.524;2023-01-09T06:20:35;0.47;;;0.30;;
64313;SDS011;50650;48.180;11.524;2023-01-09T06:23:03;0.10;;;0.10;;
64313;SDS011;50650;48.180;11.524;2023-01-09T06:25:31;0.10;;;0.10;;
64313;SDS011;50650;48.180;11.524;2023-01-09T06:27:58;0.60;;;0.20;;
64313;SDS011;50650;48.180;11.524;2023-01-09T06:30:24;1.30;;;0.10;;
64313;SDS011;50650;48.180;11.524;2023-01-09T06:32:50;0.20;;;0.20;;
64313;SDS011;50650;48.180;11.524;2023-01-09T06:35:20;0.25;;;0.15;;
64313;SDS011;50650;48.180;11.524;2023-01-09T06:37:49;0.90;;;0.30;;
64313;SDS011;50650;48.180;11.524;2023-01-09T06:40:16;0.28;;;0.10;;
64313;SDS011;50650;48.180;11.524;2023-01-09T06:42:52;0.20;;;0.10;;
64313;SDS011;50650;48.180;11.524;2023-01-09T06:45:19;0.28;;;0.10;;
64313;SDS011;50650;48.180;11.524;2023-01-09T06:47:47;1.00;;;0.20;;
64313;SDS011;50650;48.180;11.524;2023-01-09T06:50:14;0.17;;;0.10;;
64313;SDS011;50650;48.180;11.524;2023-01-09T06:52:41;3.55;;;0.20;;
64313;SDS011;50650;48.180;11.524;2023-01-09T06:55:08;0.60;;;0.30;;
64313;SDS011;50650;48.180;11.524;2023-01-09T06:57:34;0.65;;;0.40;;
64313;SDS011;50650;48.180;11.524;2023-01-09T07:00:04;0.45;;;0.30;;
64313;SDS011;50650;48.180;11.524;2023-01-09T07:02:31;0.47;;;0.10;;
64313;SDS011;50650;48.180;11.524;2023-01-09T07:04:58;0.10;;;0.05;;
64313;SDS011;50650;48.180;11.524;2023-01-09T07:07:24;0.10;;;0.00;;
64313;SDS011;50650;48.180;11.524;2023-01-09T07:09:51;0.13;;;0.10;;
64313;SDS011;50650;48.180;11.524;2023-01-09T07:12:17;0.20;;;0.10;;
64313;SDS011;50650;48.180;11.524;2023-01-09T07:14:44;0.20;;;0.10;;
64313;SDS011;50650;48.180;11.524;2023-01-09T07:17:14;3.72;;;0.20;;
64313;SDS011;50650;48.180;11.524;2023-01-09T07:19:40;0.73;;;0.20;;
64313;SDS011;50650;48.180;11.524;2023-01-09T07:22:10;0.73;;;0.10;;
64313;SDS011;50650;48.180;11.524;2023-01-09T07:24:36;0.22;;;0.10;;
64313;SDS011;50650;48.180;11.524;2023-01-09T07:27:06;0.20;;;0.10;;
64313;SDS011;50650;48.180;11.524;2023-01-09T07:29:35;0.10;;;0.10;;
64313;SDS011;50650;48.180;11.524;2023-01-09T07:32:02;0.70;;;0.20;;
64313;SDS011;50650;48.180;11.524;2023-01-09T07:34:30;0.10;;;0.10;;
64313;SDS011;50650;48.180;11.524;2023-01-09T07:36:57;0.00;;;0.00;;
64313;SDS011;50650;48.180;11.524;2023-01-09T07:39:26;5.18;;;0.15;;
64313;SDS011;50650;48.180;11.524;2023-01-09T07:41:53;0.20;;;0.10;;
64313;SDS011;50650;48.180;11.524;2023-01-09T07:44:19;0.10;;;0.10;;
64313;SDS011;50650;48.180;11.524;2023-01-09T07:46:45;0.20;;;0.10;;
64313;SDS011;50650;48.180;11.524;2023-01-09T07:49:16;0.15;;;0.10;;
64313;SDS011;50650;48.180;11.524;2023-01-09T07:51:47;0.22;;;0.10;;
64313;SDS011;50650;48.180;11.524;2023-01-09T07:54:13;0.63;;;0.20;;
64313;SDS011;50650;48.180;11.524;2023-01-09T07:56:43;1.25;;;0.20;;
64313;SDS011;50650;48.180;11.524;2023-01-09T07:59:09;0.47;;;0.20;;
64313;SDS011;50650;48.180;11.524;2023-01-09T08:01:36;0.70;;;0.25;;
64313;SDS011;50650;48.180;11.524;2023-01-09T08:04:02;0.93;;;0.30;;
64313;SDS011;50650;48.180;11.524;2023-01-09T08:06:29;0.47;;;0.22;;
64313;SDS011;50650;48.180;11.524;2023-01-09T08:08:57;0.55;;;0.20;;
64313;SDS011;50650;48.180;11.524;2023-01-09T08:11:24;0.68;;;0.30;;
64313;SDS011;50650;48.180;11.524;2023-01-09T08:13:51;0.85;;;0.40;;
64313;SDS011;50650;48.180;11.524;2023-01-09T08:16:17;0.47;;;0.17;;
64313;SDS011;50650;48.180;11.524;2023-01-09T08:18:44;0.32;;;0.15;;
64313;SDS011;50650;48.180;11.524;2023-01-09T08:21:10;0.22;;;0.10;;
64313;SDS011;50650;48.180;11.524;2023-01-09T08:23:41;1.52;;;0.30;;
64313;SDS011;50650;48.180;11.524;2023-01-09T08:26:13;0.60;;;0.20;;
64313;SDS011;50650;48.180;11.524;2023-01-09T08:28:40;0.70;;;0.20;;
64313;SDS011;50650;48.180;11.524;2023-01-09T08:31:06;0.20;;;0.10;;
64313;SDS011;50650;48.180;11.524;2023-01-09T08:33:33;0.25;;;0.20;;
64313;SDS011;50650;48.180;11.524;2023-01-09T08:35:59;0.30;;;0.20;;
64313;SDS011;50650;48.180;11.524;2023-01-09T08:38:28;0.40;;;0.17;;
64313;SDS011;50650;48.180;11.524;2023-01-09T08:40:58;0.50;;;0.25;;
64313;SDS011;50650;48.180;11.524;2023-01-09T08:43:48;0.70;;;0.35;;
64313;SDS011;50650;48.180;11.524;2023-01-09T08:46:35;2.17;;;0.20;;
64313;SDS011;50650;48.180;11.524;2023-01-09T08:49:19;2.10;;;0.55;;
64313;SDS011;50650;48.180;11.524;2023-01-09T08:51:46;0.60;;;0.30;;
64313;SDS011;50650;48.180;11.524;2023-01-09T08:54:15;2.13;;;0.20;;
64313;SDS011;50650;48.180;11.524;2023-01-09T08:56:41;0.38;;;0.20;;
64313;SDS011;50650;48.180;11.524;2023-01-09T08:59:12;0.50;;;0.20;;
64313;SDS011;50650;48.180;11.524;2023-01-09T09:01:40;1.08;;;0.30;;
64313;SDS011;50650;48.180;11.524;2023-01-09T09:04:06;1.10;;;0.28;;
64313;SDS011;50650;48.180;11.524;2023-01-09T09:06:33;1.10;;;0.22;;
64313;SDS011;50650;48.180;11.524;2023-01-09T09:08:59;1.65;;;0.40;;
64313;SDS011;50650;48.180;11.524;2023-01-09T09:11:27;0.75;;;0.28;;
64313;SDS011;50650;48.180;11.524;2023-01-09T09:13:54;1.52;;;0.35;;
64313;SDS011;50650;48.180;11.524;2023-01-09T09:16:22;2.38;;;0.30;;
64313;SDS011;50650;48.180;11.524;2023-01-09T09:18:48;2.95;;;0.50;;
64313;SDS011;50650;48.180;11.524;2023-01-09T09:21:15;1.08;;;0.30;;
64313;SDS011;50650;48.180;11.524;2023-01-09T09:23:44;2.00;;;0.40;;
64313;SDS011;50650;48.180;11.524;2023-01-09T09:26:11;1.38;;;0.20;;
64313;SDS011;50650;48.180;11.524;2023-01-09T09:28:40;1.40;;;0.20;;
64313;SDS011;50650;48.180;11.524;2023-01-09T09:31:07;0.57;;;0.10;;
64313;SDS011;50650;48.180;11.524;2023-01-09T09:33:37;2.00;;;0.30;;
64313;SDS011;50650;48.180;11.524;2023-01-09T09:36:04;2.90;;;0.30;;
64313;SDS011;50650;48.180;11.524;2023-01-09T09:38:31;0.88;;;0.22;;
64313;SDS011;50650;48.180;11.524;2023-01-09T09:41:07;1.08;;;0.20;;
64313;SDS011;50650;48.180;11.524;2023-01-09T09:43:59;1.42;;;0.32;;
64313;SDS011;50650;48.180;11.524;2023-01-09T09:46:55;1.73;;;0.38;;
64313;SDS011;50650;48.180;11.524;2023-01-09T09:52:01;2.53;;;0.38;;
64313;SDS011;50650;48.180;11.524;2023-01-09T09:54:35;1.23;;;0.35;;
64313;SDS011;50650;48.180;11.524;2023-01-09T09:57:05;0.20;;;0.17;;
64313;SDS011;50650;48.180;11.524;2023-01-09T09:59:36;1.88;;;0.20;;
64313;SDS011;50650;48.180;11.524;2023-01-09T10:02:04;0.63;;;0.20;;
64313;SDS011;50650;48.180;11.524;2023-01-09T10:04:41;2.53;;;0.38;;
64313;SDS011;50650;48.180;11.524;2023-01-09T10:07:13;3.63;;;0.30;;
64313;SDS011;50650;48.180;11.524;2023-01-09T10:09:44;0.50;;;0.22;;
64313;SDS011;50650;48.180;11.524;2023-01-09T10:12:16;4.18;;;0.30;;
64313;SDS011;50650;48.180;11.524;2023-01-09T10:14:53;2.55;;;0.82;;
64313;SDS011;50650;48.180;11.524;2023-01-09T10:17:34;3.78;;;0.20;;
64313;SDS011;50650;48.180;11.524;2023-01-09T10:23:11;2.67;;;0.30;;
64313;SDS011;50650;48.180;11.524;2023-01-09T10:25:50;3.83;;;0.70;;
64313;SDS011;50650;48.180;11.524;2023-01-09T10:28:25;1.38;;;0.45;;
64313;SDS011;50650;48.180;11.524;2023-01-09T10:31:06;0.85;;;0.20;;
64313;SDS011;50650;48.180;11.524;2023-01-09T10:33:46;5.07;;;0.30;;
64313;SDS011;50650;48.180;11.524;2023-01-09T10:36:30;1.33;;;0.40;;
64313;SDS011;50650;48.180;11.524;2023-01-09T10:39:19;0.65;;;0.30;;
64313;SDS011;50650;48.180;11.524;2023-01-09T10:41:49;1.77;;;0.30;;
64313;SDS011;50650;48.180;11.524;2023-01-09T10:44:24;1.98;;;0.30;;
64313;SDS011;50650;48.180;11.524;2023-01-09T10:46:57;2.10;;;0.40;;
64313;SDS011;50650;48.180;11.524;2023-01-09T10:49:28;1.88;;;0.47;;
64313;SDS011;50650;48.180;11.524;2023-01-09T10:52:01;2.05;;;0.40;;
64313;SDS011;50650;48.180;11.524;2023-01-09T10:54:36;2.00;;;0.40;;
64313;SDS011;50650;48.180;11.524;2023-01-09T10:57:09;2.17;;;0.40;;
64313;SDS011;50650;48.180;11.524;2023-01-09T10:59:38;1.95;;;0.35;;
64313;SDS011;50650;48.180;11.524;2023-01-09T11:02:07;2.30;;;0.30;;
64313;SDS011;50650;48.180;11.524;2023-01-09T11:04:47;1.85;;;0.73;;
64313;SDS011;50650;48.180;11.524;2023-01-09T11:07:16;3.95;;;0.50;;
64313;SDS011;50650;48.180;11.524;2023-01-09T11:09:54;2.40;;;0.30;;
64313;SDS011;50650;48.180;11.524;2023-01-09T11:12:22;3.78;;;0.30;;
64313;SDS011;50650;48.180;11.524;2023-01-09T11:14:50;2.20;;;0.40;;
64313;SDS011;50650;48.180;11.524;2023-01-09T11:17:17;2.42;;;0.50;;
64313;SDS011;50650;48.180;11.524;2023-01-09T11:19:54;2.63;;;0.70;;
64313;SDS011;50650;48.180;11.524;2023-01-09T11:22:29;0.95;;;0.35;;
64313;SDS011;50650;48.180;11.524;2023-01-09T11:25:09;4.85;;;0.60;;
64313;SDS011;50650;48.180;11.524;2023-01-09T11:27:37;0.65;;;0.30;;
64313;SDS011;50650;48.180;11.524;2023-01-09T11:30:20;2.22;;;0.73;;
64313;SDS011;50650;48.180;11.524;2023-01-09T11:32:53;3.65;;;0.50;;
64313;SDS011;50650;48.180;11.524;2023-01-09T11:35:22;5.05;;;0.90;;
64313;SDS011;50650;48.180;11.524;2023-01-09T11:37:57;2.42;;;0.47;;
64313;SDS011;50650;48.180;11.524;2023-01-09T11:40:26;2.83;;;0.52;;
64313;SDS011;50650;48.180;11.524;2023-01-09T11:43:01;3.58;;;0.30;;
64313;SDS011;50650;48.180;11.524;2023-01-09T11:45:30;2.35;;;0.50;;
64313;SDS011;50650;48.180;11.524;2023-01-09T11:47:59;2.42;;;0.40;;
64313;SDS011;50650;48.180;11.524;2023-01-09T11:50:26;2.05;;;0.35;;
64313;SDS011;50650;48.180;11.524;2023-01-09T11:53:14;3.22;;;0.60;;
64313;SDS011;50650;48.180;11.524;2023-01-09T11:55:42;1.50;;;0.40;;
64313;SDS011;50650;48.180;11.524;2023-01-09T11:58:11;1.73;;;0.22;;
64313;SDS011;50650;48.180;11.524;2023-01-09T12:00:40;4.68;;;0.43;;
64313;SDS011;50650;48.180;11.524;2023-01-09T12:03:12;0.77;;;0.30;;
64313;SDS011;50650;48.180;11.524;2023-01-09T12:05:48;2.08;;;0.50;;
64313;SDS011;50650;48.180;11.524;2023-01-09T12:08:30;2.03;;;0.40;;
64313;SDS011;50650;48.180;11.524;2023-01-09T12:13:57;4.15;;;0.57;;
64313;SDS011;50650;48.180;11.524;2023-01-09T12:16:30;2.25;;;0.40;;
64313;SDS011;50650;48.180;11.524;2023-01-09T12:19:06;1.35;;;0.50;;
64313;SDS011;50650;48.180;11.524;2023-01-09T12:21:42;3.17;;;0.43;;
64313;SDS011;50650;48.180;11.524;2023-01-09T12:24:22;2.15;;;0.40;;
64313;SDS011;50650;48.180;11.524;2023-01-09T12:27:00;1.58;;;0.60;;
64313;SDS011;50650;48.180;11.524;2023-01-09T12:29:38;1.90;;;0.40;;
64313;SDS011;50650;48.180;11.524;2023-01-09T12:32:14;2.80;;;0.40;;
64313;SDS011;50650;48.180;11.524;2023-01-09T12:34:51;1.63;;;0.38;;
64313;SDS011;50650;48.180;11.524;2023-01-09T12:37:28;3.13;;;0.35;;
64313;SDS011;50650;48.180;11.524;2023-01-09T12:40:05;2.97;;;0.30;;
64313;SDS011;50650;48.180;11.524;2023-01-09T12:42:43;2.08;;;0.50;;
64313;SDS011;50650;48.180;11.524;2023-01-09T12:45:22;3.95;;;0.75;;
64313;SDS011;50650;48.180;11.524;2023-01-09T12:50:33;2.85;;;0.30;;
64313;SDS011;50650;48.180;11.524;2023-01-09T12:53:11;3.03;;;0.50;;
64313;SDS011;50650;48.180;11.524;2023-01-09T12:55:45;1.33;;;0.52;;
64313;SDS011;50650;48.180;11.524;2023-01-09T12:58:23;1.42;;;0.40;;
64313;SDS011;50650;48.180;11.524;2023-01-09T13:00:54;0.95;;;0.40;;
64313;SDS011;50650;48.180;11.524;2023-01-09T13:03:22;2.45;;;0.55;;
64313;SDS011;50650;48.180;11.524;2023-01-09T13:05:56;2.00;;;0.40;;
64313;SDS011;50650;48.180;11.524;2023-01-09T13:08:24;2.75;;;0.38;;
64313;SDS011;50650;48.180;11.524;2023-01-09T13:10:57;0.60;;;0.22;;
64313;SDS011;50650;48.180;11.524;2023-01-09T13:13:30;2.78;;;0.55;;
64313;SDS011;50650;48.180;11.524;2023-01-09T13:16:00;2.55;;;0.60;;
64313;SDS011;50650;48.180;11.524;2023-01-09T13:18:37;3.25;;;0.40;;
64313;SDS011;50650;48.180;11.524;2023-01-09T13:21:06;3.17;;;0.52;;
64313;SDS011;50650;48.180;11.524;2023-01-09T13:23:38;1.33;;;0.43;;
64313;SDS011;50650;48.180;11.524;2023-01-09T13:26:14;0.82;;;0.40;;
64313;SDS011;50650;48.180;11.524;2023-01-09T13:28:44;2.50;;;0.40;;
64313;SDS011;50650;48.180;11.524;2023-01-09T13:31:22;3.95;;;0.68;;
64313;SDS011;50650;48.180;11.524;2023-01-09T13:34:21;3.90;;;0.38;;
64313;SDS011;50650;48.180;11.524;2023-01-09T13:36:50;2.90;;;0.50;;
64313;SDS011;50650;48.180;11.524;2023-01-09T13:39:21;0.93;;;0.30;;
64313;SDS011;50650;48.180;11.524;2023-01-09T13:41:51;1.88;;;0.47;;
64313;SDS011;50650;48.180;11.524;2023-01-09T13:44:37;1.95;;;0.40;;
64313;SDS011;50650;48.180;11.524;2023-01-09T13:47:13;4.55;;;0.50;;
64313;SDS011;50650;48.180;11.524;2023-01-09T13:52:49;0.90;;;0.30;;
64313;SDS011;50650;48.180;11.524;2023-01-09T13:55:21;2.60;;;0.60;;
64313;SDS011;50650;48.180;11.524;2023-01-09T14:00:53;3.60;;;0.40;;
64313;SDS011;50650;48.180;11.524;2023-01-09T14:03:29;2.58;;;0.50;;
64313;SDS011;50650;48.180;11.524;2023-01-09T14:06:18;1.95;;;0.28;;
64313;SDS011;50650;48.180;11.524;2023-01-09T14:08:46;2.78;;;0.75;;
64313;SDS011;50650;48.180;11.524;2023-01-09T14:11:19;2.72;;;0.50;;
64313;SDS011;50650;48.180;11.524;2023-01-09T14:13:54;5.60;;;0.52;;
64313;SDS011;50650;48.180;11.524;2023-01-09T14:16:25;6.13;;;0.85;;
64313;SDS011;50650;48.180;11.524;2023-01-09T14:18:53;3.65;;;0.38;;
64313;SDS011;50650;48.180;11.524;2023-01-09T14:21:22;2.55;;;0.40;;
64313;SDS011;50650;48.180;11.524;2023-01-09T14:23:50;2.20;;;0.38;;
64313;SDS011;50650;48.180;11.524;2023-01-09T14:26:21;2.10;;;0.32;;
64313;SDS011;50650;48.180;11.524;2023-01-09T14:28:48;3.97;;;0.63;;
64313;SDS011;50650;48.180;11.524;2023-01-09T14:31:27;3.17;;;0.50;;
64313;SDS011;50650;48.180;11.524;2023-01-09T14:36:44;4.13;;;1.00;;
64313;SDS011;50650;48.180;11.524;2023-01-09T14:39:11;3.55;;;0.50;;
64313;SDS011;50650;48.180;11.524;2023-01-09T14:41:44;0.75;;;0.30;;
64313;SDS011;50650;48.180;11.524;2023-01-09T14:44:30;3.13;;;0.45;;
64313;SDS011;50650;48.180;11.524;2023-01-09T14:47:03;2.83;;;0.60;;
64313;SDS011;50650;48.180;11.524;2023-01-09T14:49:33;1.75;;;0.35;;
64313;SDS011;50650;48.180;11.524;2023-01-09T14:52:05;7.53;;;1.15;;
64313;SDS011;50650;48.180;11.524;2023-01-09T14:54:36;4.13;;;0.60;;
64313;SDS011;50650;48.180;11.524;2023-01-09T14:57:06;7.85;;;0.80;;
64313;SDS011;50650;48.180;11.524;2023-01-09T14:59:53;2.35;;;0.70;;
64313;SDS011;50650;48.180;11.524;2023-01-09T15:02:22;2.90;;;0.40;;
64313;SDS011;50650;48.180;11.524;2023-01-09T15:04:51;3.08;;;0.55;;
64313;SDS011;50650;48.180;11.524;2023-01-09T15:07:19;1.48;;;0.50;;
64313;SDS011;50650;48.180;11.524;2023-01-09T15:09:47;1.15;;;0.47;;
64313;SDS011;50650;48.180;11.524;2023-01-09T15:12:15;1.13;;;0.38;;
64313;SDS011;50650;48.180;11.524;2023-01-09T15:14:43;1.50;;;0.30;;
64313;SDS011;50650;48.180;11.524;2023-01-09T15:17:15;0.90;;;0.40;;
64313;SDS011;50650;48.180;11.524;2023-01-09T15:19:46;1.02;;;0.40;;
64313;SDS011;50650;48.180;11.524;2023-01-09T15:22:20;1.10;;;0.73;;
64313;SDS011;50650;48.180;11.524;2023-01-09T15:27:14;3.80;;;0.63;;
64313;SDS011;50650;48.180;11.524;2023-01-09T15:29:43;1.48;;;0.50;;
64313;SDS011;50650;48.180;11.524;2023-01-09T15:32:12;1.67;;;0.40;;
64313;SDS011;50650;48.180;11.524;2023-01-09T15:34:44;1.05;;;0.35;;